sensor_id;sensor_type;location;lat;lon;timestamp;pressure;altitude;pressure_sealevel;temperature;humidity
77939;BME280;67136;47.546;21.630;2023-04-15T00:00:26;99309.63;;;6.61;96.36
77939;BME280;67136;47.546;21.630;2023-04-15T00:03:30;99307.47;;;6.66;95.98
77939;BME280;67136;47.546;21.630;2023-04-15T00:06:33;99306.97;;;6.72;95.48
77939;BME280;67136;47.546;21.630;2023-04-15T00:09:36;99300.31;;;6.79;95.14
77939;BME280;67136;47.546;21.630;2023-04-15T00:12:39;99303.09;;;6.87;94.31
77939;BME280;67136;47.546;21.630;2023-04-15T00:15:42;99303.78;;;6.89;94.47
77939;BME280;67136;47.546;21.630;2023-04-15T00:18:44;99303.44;;;6.94;94.36
77939;BME280;67136;47.546;21.630;2023-04-15T00:21:47;99306.03;;;6.94;94.11
77939;BME280;67136;47.546;21.630;2023-04-15T00:24:51;99306.03;;;6.94;93.15
77939;BME280;67136;47.546;21.630;2023-04-15T00:27:53;99304.81;;;6.98;93.36
77939;BME280;67136;47.546;21.630;2023-04-15T00:30:57;99309.38;;;7.05;93.34
77939;BME280;67136;47.546;21.630;2023-04-15T00:34:00;99303.91;;;7.08;93.28
77939;BME280;67136;47.546;21.630;2023-04-15T00:37:03;99305.28;;;7.12;93.28
77939;BME280;67136;47.546;21.630;2023-04-15T00:40:11;99300.66;;;7.16;93.04
77939;BME280;67136;47.546;21.630;2023-04-15T00:43:13;99301.78;;;7.23;92.87
77939;BME280;67136;47.546;21.630;2023-04-15T00:46:19;99307.00;;;7.23;92.76
77939;BME280;67136;47.546;21.630;2023-04-15T00:49:22;99305.66;;;7.28;91.94
77939;BME280;67136;47.546;21.630;2023-04-15T00:52:26;99306.94;;;7.34;91.75
77939;BME280;67136;47.546;21.630;2023-04-15T00:55:28;99301.59;;;7.35;91.60
77939;BME280;67136;47.546;21.630;2023-04-15T00:58:31;99298.56;;;7.30;91.68
77939;BME280;67136;47.546;21.630;2023-04-15T01:01:37;99299.37;;;7.31;91.86
77939;BME280;67136;47.546;21.630;2023-04-15T01:04:40;99301.88;;;7.32;91.36
77939;BME280;67136;47.546;21.630;2023-04-15T01:07:43;99308.69;;;7.33;91.32
77939;BME280;67136;47.546;21.630;2023-04-15T01:10:46;99298.28;;;7.33;91.22
77939;BME280;67136;47.546;21.630;2023-04-15T01:13:49;99299.94;;;7.34;91.19
77939;BME280;67136;47.546;21.630;2023-04-15T01:16:52;99308.97;;;7.30;91.19
77939;BME280;67136;47.546;21.630;2023-04-15T01:19:55;99299.47;;;7.20;91.36
77939;BME280;67136;47.546;21.630;2023-04-15T01:23:04;99298.72;;;7.08;91.73
77939;BME280;67136;47.546;21.630;2023-04-15T01:26:07;99297.84;;;6.98;92.40
77939;BME280;67136;47.546;21.630;2023-04-15T01:29:11;99310.41;;;6.93;92.26
77939;BME280;67136;47.546;21.630;2023-04-15T01:32:14;99307.63;;;6.85;92.64
77939;BME280;67136;47.546;21.630;2023-04-15T01:35:18;99312.47;;;6.79;92.61
77939;BME280;67136;47.546;21.630;2023-04-15T01:38:21;99306.81;;;6.74;92.97
77939;BME280;67136;47.546;21.630;2023-04-15T01:41:27;99310.78;;;6.68;93.63
77939;BME280;67136;47.546;21.630;2023-04-15T01:44:30;99311.25;;;6.62;94.32
77939;BME280;67136;47.546;21.630;2023-04-15T01:47:33;99313.66;;;6.54;94.17
77939;BME280;67136;47.546;21.630;2023-04-15T01:50:36;99316.78;;;6.48;95.38
77939;BME280;67136;47.546;21.630;2023-04-15T01:53:39;99309.97;;;6.36;95.17
77939;BME280;67136;47.546;21.630;2023-04-15T01:56:42;99314.25;;;6.26;95.43
77939;BME280;67136;47.546;21.630;2023-04-15T01:59:45;99311.69;;;6.15;95.98
77939;BME280;67136;47.546;21.630;2023-04-15T02:02:49;99313.38;;;6.05;96.04
77939;BME280;67136;47.546;21.630;2023-04-15T02:05:52;99304.44;;;5.98;96.09
77939;BME280;67136;47.546;21.630;2023-04-15T02:08:55;99304.91;;;5.92;96.37
77939;BME280;67136;47.546;21.630;2023-04-15T02:11:57;99311.78;;;5.93;96.83
77939;BME280;67136;47.546;21.630;2023-04-15T02:15:01;99314.00;;;5.97;97.22
77939;BME280;67136;47.546;21.630;2023-04-15T02:18:04;99308.44;;;6.02;97.56
77939;BME280;67136;47.546;21.630;2023-04-15T02:21:06;99313.28;;;6.06;97.48
77939;BME280;67136;47.546;21.630;2023-04-15T02:24:11;99309.34;;;6.12;97.25
77939;BME280;67136;47.546;21.630;2023-04-15T02:27:16;99309.31;;;6.23;96.90
77939;BME280;67136;47.546;21.630;2023-04-15T02:30:24;99305.16;;;6.32;96.43
77939;BME280;67136;47.546;21.630;2023-04-15T02:33:28;99303.03;;;6.37;96.17
77939;BME280;67136;47.546;21.630;2023-04-15T02:36:30;99302.91;;;6.38;96.08
77939;BME280;67136;47.546;21.630;2023-04-15T02:39:33;99296.28;;;6.34;96.05
77939;BME280;67136;47.546;21.630;2023-04-15T02:42:36;99296.81;;;6.28;96.06
77939;BME280;67136;47.546;21.630;2023-04-15T02:45:39;99289.22;;;6.25;96.36
77939;BME280;67136;47.546;21.630;2023-04-15T02:48:42;99291.97;;;6.23;96.47
77939;BME280;67136;47.546;21.630;2023-04-15T02:51:45;99293.03;;;6.21;96.75
77939;BME280;67136;47.546;21.630;2023-04-15T02:54:52;99289.28;;;6.14;96.97
77939;BME280;67136;47.546;21.630;2023-04-15T02:57:58;99303.00;;;6.05;97.03
77939;BME280;67136;47.546;21.630;2023-04-15T03:01:02;99298.75;;;6.04;97.42
77939;BME280;67136;47.546;21.630;2023-04-15T03:04:05;99303.69;;;6.07;97.67
77939;BME280;67136;47.546;21.630;2023-04-15T03:07:10;99306.50;;;6.15;97.24
77939;BME280;67136;47.546;21.630;2023-04-15T03:10:12;99296.34;;;6.23;97.13
77939;BME280;67136;47.546;21.630;2023-04-15T03:13:15;99301.75;;;6.31;96.78
77939;BME280;67136;47.546;21.630;2023-04-15T03:16:18;99299.84;;;6.33;96.67
77939;BME280;67136;47.546;21.630;2023-04-15T03:19:21;99304.53;;;6.39;96.55
77939;BME280;67136;47.546;21.630;2023-04-15T03:22:24;99295.78;;;6.40;96.24
77939;BME280;67136;47.546;21.630;2023-04-15T03:25:28;99291.28;;;6.42;96.16
77939;BME280;67136;47.546;21.630;2023-04-15T03:28:31;99287.53;;;6.35;96.18
77939;BME280;67136;47.546;21.630;2023-04-15T03:31:34;99288.44;;;6.24;96.55
77939;BME280;67136;47.546;21.630;2023-04-15T03:34:37;99293.78;;;6.12;97.01
77939;BME280;67136;47.546;21.630;2023-04-15T03:37:39;99302.31;;;6.03;97.33
77939;BME280;67136;47.546;21.630;2023-04-15T03:40:42;99297.84;;;5.94;97.16
77939;BME280;67136;47.546;21.630;2023-04-15T03:43:45;99298.56;;;5.85;97.54
77939;BME280;67136;47.546;21.630;2023-04-15T03:46:48;99303.53;;;5.88;98.28
77939;BME280;67136;47.546;21.630;2023-04-15T03:49:51;99303.62;;;5.75;98.02
77939;BME280;67136;47.546;21.630;2023-04-15T03:52:53;99313.41;;;5.72;98.51
77939;BME280;67136;47.546;21.630;2023-04-15T03:55:56;99303.53;;;5.66;98.73
77939;BME280;67136;47.546;21.630;2023-04-15T03:58:58;99313.41;;;5.72;99.24
77939;BME280;67136;47.546;21.630;2023-04-15T04:02:01;99322.16;;;5.71;98.85
77939;BME280;67136;47.546;21.630;2023-04-15T04:05:04;99321.69;;;5.66;98.97
77939;BME280;67136;47.546;21.630;2023-04-15T04:08:07;99326.50;;;5.70;99.13
77939;BME280;67136;47.546;21.630;2023-04-15T04:11:10;99323.66;;;5.73;99.37
77939;BME280;67136;47.546;21.630;2023-04-15T04:14:12;99331.09;;;5.78;99.14
77939;BME280;67136;47.546;21.630;2023-04-15T04:17:15;99328.16;;;5.82;99.20
77939;BME280;67136;47.546;21.630;2023-04-15T04:20:18;99331.34;;;5.86;99.05
77939;BME280;67136;47.546;21.630;2023-04-15T04:23:20;99335.59;;;5.87;98.81
77939;BME280;67136;47.546;21.630;2023-04-15T04:26:23;99334.19;;;5.83;98.45
77939;BME280;67136;47.546;21.630;2023-04-15T04:29:25;99327.56;;;5.90;98.36
77939;BME280;67136;47.546;21.630;2023-04-15T04:32:28;99333.44;;;5.92;98.48
77939;BME280;67136;47.546;21.630;2023-04-15T04:35:31;99337.72;;;5.93;98.56
77939;BME280;67136;47.546;21.630;2023-04-15T04:38:36;99343.38;;;5.87;98.53
77939;BME280;67136;47.546;21.630;2023-04-15T04:41:38;99337.47;;;5.85;98.20
77939;BME280;67136;47.546;21.630;2023-04-15T04:44:41;99342.91;;;5.93;98.05
77939;BME280;67136;47.546;21.630;2023-04-15T04:47:44;99350.06;;;6.00;97.90
77939;BME280;67136;47.546;21.630;2023-04-15T04:50:46;99345.47;;;6.04;97.63
77939;BME280;67136;47.546;21.630;2023-04-15T04:53:49;99347.81;;;6.07;97.50
77939;BME280;67136;47.546;21.630;2023-04-15T04:56:52;99352.53;;;6.13;97.02
77939;BME280;67136;47.546;21.630;2023-04-15T04:59:54;99353.22;;;6.15;96.84
77939;BME280;67136;47.546;21.630;2023-04-15T05:02:57;99359.81;;;6.19;96.46
77939;BME280;67136;47.546;21.630;2023-04-15T05:06:01;99356.25;;;6.20;96.25
77939;BME280;67136;47.546;21.630;2023-04-15T05:09:07;99354.84;;;6.27;95.91
77939;BME280;67136;47.546;21.630;2023-04-15T05:12:09;99357.03;;;6.43;94.97
77939;BME280;67136;47.546;21.630;2023-04-15T05:15:16;99368.19;;;6.54;94.55
77939;BME280;67136;47.546;21.630;2023-04-15T05:18:19;99368.00;;;6.78;94.47
77939;BME280;67136;47.546;21.630;2023-04-15T05:21:22;99370.66;;;7.08;93.44
77939;BME280;67136;47.546;21.630;2023-04-15T05:24:24;99367.91;;;7.50;91.09
77939;BME280;67136;47.546;21.630;2023-04-15T05:27:27;99370.50;;;7.81;89.52
77939;BME280;67136;47.546;21.630;2023-04-15T05:30:30;99376.16;;;8.05;88.27
77939;BME280;67136;47.546;21.630;2023-04-15T05:33:33;99375.25;;;8.15;85.94
77939;BME280;67136;47.546;21.630;2023-04-15T05:36:36;99380.69;;;8.33;86.16
77939;BME280;67136;47.546;21.630;2023-04-15T05:39:38;99370.13;;;8.44;85.61
77939;BME280;67136;47.546;21.630;2023-04-15T05:42:41;99373.16;;;8.68;84.05
77939;BME280;67136;47.546;21.630;2023-04-15T05:45:44;99372.62;;;8.84;81.83
77939;BME280;67136;47.546;21.630;2023-04-15T05:48:47;99373.12;;;9.16;79.88
77939;BME280;67136;47.546;21.630;2023-04-15T05:51:49;99369.50;;;9.82;78.94
77939;BME280;67136;47.546;21.630;2023-04-15T05:54:53;99377.09;;;10.02;78.26
77939;BME280;67136;47.546;21.630;2023-04-15T05:57:55;99382.88;;;10.33;77.74
77939;BME280;67136;47.546;21.630;2023-04-15T06:00:58;99380.81;;;10.10;73.92
77939;BME280;67136;47.546;21.630;2023-04-15T06:04:01;99381.28;;;10.23;76.95
77939;BME280;67136;47.546;21.630;2023-04-15T06:07:04;99389.13;;;10.23;75.33
77939;BME280;67136;47.546;21.630;2023-04-15T06:10:07;99388.81;;;10.26;75.10
77939;BME280;67136;47.546;21.630;2023-04-15T06:13:10;99392.78;;;10.30;73.62
77939;BME280;67136;47.546;21.630;2023-04-15T06:16:13;99392.16;;;10.63;73.55
77939;BME280;67136;47.546;21.630;2023-04-15T06:19:15;99396.41;;;10.64;74.18
77939;BME280;67136;47.546;21.630;2023-04-15T06:22:18;99400.19;;;10.52;74.37
77939;BME280;67136;47.546;21.630;2023-04-15T06:25:21;99398.63;;;10.59;73.05
77939;BME280;67136;47.546;21.630;2023-04-15T06:28:24;99397.63;;;10.87;70.95
77939;BME280;67136;47.546;21.630;2023-04-15T06:31:26;99389.63;;;10.88;70.82
77939;BME280;67136;47.546;21.630;2023-04-15T06:34:29;99405.47;;;10.87;70.74
77939;BME280;67136;47.546;21.630;2023-04-15T06:37:31;99402.00;;;10.86;68.76
77939;BME280;67136;47.546;21.630;2023-04-15T06:40:34;99402.28;;;11.44;67.04
77939;BME280;67136;47.546;21.630;2023-04-15T06:43:37;99410.88;;;12.13;65.24
77939;BME280;67136;47.546;21.630;2023-04-15T06:46:40;99409.31;;;12.28;63.49
77939;BME280;67136;47.546;21.630;2023-04-15T06:49:43;99415.69;;;12.26;63.15
77939;BME280;67136;47.546;21.630;2023-04-15T06:52:46;99409.09;;;12.72;61.36
77939;BME280;67136;47.546;21.630;2023-04-15T06:55:48;99410.06;;;12.71;61.51
77939;BME280;67136;47.546;21.630;2023-04-15T06:58:51;99404.88;;;13.03;60.50
77939;BME280;67136;47.546;21.630;2023-04-15T07:01:53;99404.22;;;13.09;59.72
77939;BME280;67136;47.546;21.630;2023-04-15T07:04:57;99412.63;;;13.99;57.91
77939;BME280;67136;47.546;21.630;2023-04-15T07:07:59;99421.31;;;13.05;59.67
77939;BME280;67136;47.546;21.630;2023-04-15T07:11:02;99422.44;;;13.34;59.33
77939;BME280;67136;47.546;21.630;2023-04-15T07:14:05;99422.94;;;13.30;59.30
77939;BME280;67136;47.546;21.630;2023-04-15T07:17:08;99425.75;;;13.20;60.34
77939;BME280;67136;47.546;21.630;2023-04-15T07:20:11;99419.66;;;13.28;60.10
77939;BME280;67136;47.546;21.630;2023-04-15T07:23:14;99429.19;;;14.54;57.63
77939;BME280;67136;47.546;21.630;2023-04-15T07:26:17;99432.62;;;14.08;56.97
77939;BME280;67136;47.546;21.630;2023-04-15T07:29:20;99428.91;;;13.95;56.42
77939;BME280;67136;47.546;21.630;2023-04-15T07:32:22;99439.53;;;13.30;58.59
77939;BME280;67136;47.546;21.630;2023-04-15T07:35:25;99445.00;;;13.92;57.64
77939;BME280;67136;47.546;21.630;2023-04-15T07:38:28;99445.00;;;13.92;56.54
77939;BME280;67136;47.546;21.630;2023-04-15T07:41:31;99448.47;;;12.80;59.17
77939;BME280;67136;47.546;21.630;2023-04-15T07:44:34;99452.13;;;13.03;59.43
77939;BME280;67136;47.546;21.630;2023-04-15T07:47:37;99459.00;;;13.04;59.73
77939;BME280;67136;47.546;21.630;2023-04-15T07:50:39;99459.00;;;13.04;59.98
77939;BME280;67136;47.546;21.630;2023-04-15T07:53:42;99446.25;;;13.49;58.88
77939;BME280;67136;47.546;21.630;2023-04-15T07:56:45;99450.69;;;14.27;57.37
77939;BME280;67136;47.546;21.630;2023-04-15T07:59:48;99453.56;;;13.86;58.65
77939;BME280;67136;47.546;21.630;2023-04-15T08:02:51;99444.47;;;16.30;51.90
77939;BME280;67136;47.546;21.630;2023-04-15T08:05:55;99449.03;;;16.36;51.03
77939;BME280;67136;47.546;21.630;2023-04-15T08:08:58;99442.41;;;17.88;47.65
77939;BME280;67136;47.546;21.630;2023-04-15T08:12:02;99435.41;;;17.25;48.99
77939;BME280;67136;47.546;21.630;2023-04-15T08:15:05;99436.41;;;17.73;48.08
77939;BME280;67136;47.546;21.630;2023-04-15T08:18:09;99446.31;;;16.80;50.73
77939;BME280;67136;47.546;21.630;2023-04-15T08:21:12;99444.66;;;15.03;55.45
77939;BME280;67136;47.546;21.630;2023-04-15T08:24:15;99455.69;;;14.53;58.15
77939;BME280;67136;47.546;21.630;2023-04-15T08:27:18;99453.06;;;15.29;56.09
77939;BME280;67136;47.546;21.630;2023-04-15T08:30:21;99446.84;;;14.68;57.47
77939;BME280;67136;47.546;21.630;2023-04-15T08:33:24;99465.28;;;14.30;58.75
77939;BME280;67136;47.546;21.630;2023-04-15T08:36:27;99463.62;;;14.37;58.64
77939;BME280;67136;47.546;21.630;2023-04-15T08:39:29;99460.06;;;14.14;59.97
77939;BME280;67136;47.546;21.630;2023-04-15T08:42:36;99458.16;;;13.92;60.87
77939;BME280;67136;47.546;21.630;2023-04-15T08:45:44;99462.84;;;14.28;60.25
77939;BME280;67136;47.546;21.630;2023-04-15T08:48:48;99467.75;;;16.41;54.23
77939;BME280;67136;47.546;21.630;2023-04-15T08:51:51;99458.00;;;15.98;54.77
77939;BME280;67136;47.546;21.630;2023-04-15T08:54:56;99461.34;;;15.63;55.34
77939;BME280;67136;47.546;21.630;2023-04-15T08:58:02;99456.12;;;15.40;56.30
77939;BME280;67136;47.546;21.630;2023-04-15T09:01:06;99463.94;;;16.94;51.84
77939;BME280;67136;47.546;21.630;2023-04-15T09:04:10;99455.44;;;17.89;49.06
77939;BME280;67136;47.546;21.630;2023-04-15T09:07:14;99462.75;;;16.32;52.72
77939;BME280;67136;47.546;21.630;2023-04-15T09:10:16;99455.22;;;16.14;54.30
77939;BME280;67136;47.546;21.630;2023-04-15T09:13:19;99449.19;;;15.39;56.53
77939;BME280;67136;47.546;21.630;2023-04-15T09:16:21;99457.84;;;15.03;57.66
77939;BME280;67136;47.546;21.630;2023-04-15T09:19:24;99465.44;;;14.98;57.49
77939;BME280;67136;47.546;21.630;2023-04-15T09:22:31;99459.50;;;14.42;58.19
77939;BME280;67136;47.546;21.630;2023-04-15T09:25:34;99460.72;;;14.93;57.48
77939;BME280;67136;47.546;21.630;2023-04-15T09:28:41;99456.25;;;15.16;55.45
77939;BME280;67136;47.546;21.630;2023-04-15T09:31:45;99462.41;;;15.31;54.65
77939;BME280;67136;47.546;21.630;2023-04-15T09:34:47;99463.88;;;14.58;56.64
77939;BME280;67136;47.546;21.630;2023-04-15T09:37:51;99464.41;;;13.91;56.99
77939;BME280;67136;47.546;21.630;2023-04-15T09:40:54;99470.22;;;16.57;50.62
77939;BME280;67136;47.546;21.630;2023-04-15T09:43:56;99464.53;;;15.73;49.00
77939;BME280;67136;47.546;21.630;2023-04-15T09:46:59;99451.94;;;15.46;50.21
77939;BME280;67136;47.546;21.630;2023-04-15T09:50:02;99459.25;;;18.48;42.16
77939;BME280;67136;47.546;21.630;2023-04-15T09:53:05;99457.88;;;18.59;40.76
77939;BME280;67136;47.546;21.630;2023-04-15T09:56:07;99443.00;;;19.64;38.91
77939;BME280;67136;47.546;21.630;2023-04-15T09:59:11;99463.38;;;20.09;38.15
77939;BME280;67136;47.546;21.630;2023-04-15T10:02:14;99457.63;;;19.21;38.61
77939;BME280;67136;47.546;21.630;2023-04-15T10:05:17;99447.44;;;19.18;38.31
77939;BME280;67136;47.546;21.630;2023-04-15T10:08:22;99460.03;;;20.40;37.25
77939;BME280;67136;47.546;21.630;2023-04-15T10:11:28;99453.94;;;20.39;36.92
77939;BME280;67136;47.546;21.630;2023-04-15T10:14:34;99448.38;;;21.54;33.76
77939;BME280;67136;47.546;21.630;2023-04-15T10:17:43;99444.00;;;22.27;33.82
77939;BME280;67136;47.546;21.630;2023-04-15T10:20:47;99430.69;;;22.27;32.95
77939;BME280;67136;47.546;21.630;2023-04-15T10:23:50;99434.19;;;20.60;35.70
77939;BME280;67136;47.546;21.630;2023-04-15T10:26:53;99437.06;;;22.07;33.37
77939;BME280;67136;47.546;21.630;2023-04-15T10:30:00;99434.16;;;22.63;31.72
77939;BME280;67136;47.546;21.630;2023-04-15T10:33:05;99447.56;;;22.75;31.57
77939;BME280;67136;47.546;21.630;2023-04-15T10:36:10;99441.00;;;18.19;39.88
77939;BME280;67136;47.546;21.630;2023-04-15T10:42:35;99454.47;;;15.91;44.70
77939;BME280;67136;47.546;21.630;2023-04-15T10:45:38;99442.41;;;15.00;46.99
77939;BME280;67136;47.546;21.630;2023-04-15T10:48:47;99436.84;;;15.40;47.00
77939;BME280;67136;47.546;21.630;2023-04-15T10:51:57;99439.66;;;15.90;46.03
77939;BME280;67136;47.546;21.630;2023-04-15T10:58:08;99437.47;;;16.08;44.27
77939;BME280;67136;47.546;21.630;2023-04-15T11:01:12;99443.75;;;15.92;44.61
77939;BME280;67136;47.546;21.630;2023-04-15T11:04:14;99439.16;;;15.35;47.62
77939;BME280;67136;47.546;21.630;2023-04-15T11:07:38;99435.19;;;16.05;44.64
77939;BME280;67136;47.546;21.630;2023-04-15T11:13:50;99447.94;;;16.31;41.37
77939;BME280;67136;47.546;21.630;2023-04-15T11:16:53;99448.28;;;16.92;39.51
77939;BME280;67136;47.546;21.630;2023-04-15T11:19:57;99452.00;;;19.43;36.25
77939;BME280;67136;47.546;21.630;2023-04-15T11:22:59;99453.56;;;20.23;34.31
77939;BME280;67136;47.546;21.630;2023-04-15T11:26:17;99457.66;;;19.27;36.14
77939;BME280;67136;47.546;21.630;2023-04-15T11:29:19;99458.97;;;17.69;36.12
77939;BME280;67136;47.546;21.630;2023-04-15T11:32:22;99466.66;;;16.50;40.62
77939;BME280;67136;47.546;21.630;2023-04-15T11:35:25;99478.13;;;16.28;41.81
77939;BME280;67136;47.546;21.630;2023-04-15T11:38:28;99465.06;;;15.54;43.71
77939;BME280;67136;47.546;21.630;2023-04-15T11:41:30;99454.72;;;17.47;39.73
77939;BME280;67136;47.546;21.630;2023-04-15T11:44:33;99456.81;;;19.20;34.09
77939;BME280;67136;47.546;21.630;2023-04-15T11:47:36;99471.31;;;18.51;36.33
77939;BME280;67136;47.546;21.630;2023-04-15T11:50:39;99471.09;;;18.18;36.51
77939;BME280;67136;47.546;21.630;2023-04-15T11:53:49;99462.59;;;19.69;35.09
77939;BME280;67136;47.546;21.630;2023-04-15T11:56:53;99479.31;;;19.44;35.62
77939;BME280;67136;47.546;21.630;2023-04-15T11:59:56;99461.13;;;20.00;33.31
77939;BME280;67136;47.546;21.630;2023-04-15T12:06:22;99460.69;;;20.29;32.38
77939;BME280;67136;47.546;21.630;2023-04-15T12:09:25;99470.62;;;18.08;36.31
77939;BME280;67136;47.546;21.630;2023-04-15T12:12:28;99466.75;;;17.77;37.13
77939;BME280;67136;47.546;21.630;2023-04-15T12:15:31;99463.56;;;20.21;32.52
77939;BME280;67136;47.546;21.630;2023-04-15T12:18:37;99463.44;;;19.50;32.17
77939;BME280;67136;47.546;21.630;2023-04-15T12:21:41;99464.53;;;18.96;34.45
77939;BME280;67136;47.546;21.630;2023-04-15T12:24:45;99466.13;;;18.02;36.83
77939;BME280;67136;47.546;21.630;2023-04-15T12:27:51;99475.56;;;18.18;37.64
77939;BME280;67136;47.546;21.630;2023-04-15T12:30:55;99468.19;;;17.52;38.29
77939;BME280;67136;47.546;21.630;2023-04-15T12:33:58;99477.13;;;18.40;36.86
77939;BME280;67136;47.546;21.630;2023-04-15T12:37:05;99466.87;;;17.05;39.00
77939;BME280;67136;47.546;21.630;2023-04-15T12:40:08;99484.25;;;17.14;39.72
77939;BME280;67136;47.546;21.630;2023-04-15T12:43:11;99465.75;;;18.12;37.61
77939;BME280;67136;47.546;21.630;2023-04-15T12:46:13;99468.91;;;17.24;39.93
77939;BME280;67136;47.546;21.630;2023-04-15T12:49:17;99477.63;;;16.68;41.19
77939;BME280;67136;47.546;21.630;2023-04-15T12:52:22;99473.22;;;16.25;42.50
77939;BME280;67136;47.546;21.630;2023-04-15T12:55:26;99495.50;;;15.71;42.28
77939;BME280;67136;47.546;21.630;2023-04-15T12:58:28;99489.38;;;15.56;43.78
77939;BME280;67136;47.546;21.630;2023-04-15T13:01:31;99482.75;;;16.11;41.91
77939;BME280;67136;47.546;21.630;2023-04-15T13:04:34;99497.16;;;17.03;39.92
77939;BME280;67136;47.546;21.630;2023-04-15T13:07:37;99483.19;;;18.00;37.82
77939;BME280;67136;47.546;21.630;2023-04-15T13:10:40;99487.31;;;18.90;36.72
77939;BME280;67136;47.546;21.630;2023-04-15T13:13:43;99486.66;;;17.73;38.76
77939;BME280;67136;47.546;21.630;2023-04-15T13:16:46;99493.38;;;17.12;39.87
77939;BME280;67136;47.546;21.630;2023-04-15T13:19:49;99489.06;;;16.54;41.00
77939;BME280;67136;47.546;21.630;2023-04-15T13:22:52;99488.13;;;16.18;42.02
77939;BME280;67136;47.546;21.630;2023-04-15T13:25:55;99487.50;;;16.31;42.00
77939;BME280;67136;47.546;21.630;2023-04-15T13:28:58;99483.91;;;15.94;43.19
77939;BME280;67136;47.546;21.630;2023-04-15T13:32:02;99490.75;;;15.52;43.60
77939;BME280;67136;47.546;21.630;2023-04-15T13:35:05;99507.00;;;15.33;42.95
77939;BME280;67136;47.546;21.630;2023-04-15T13:38:08;99513.84;;;14.88;44.46
77939;BME280;67136;47.546;21.630;2023-04-15T13:41:10;99517.09;;;14.29;44.92
77939;BME280;67136;47.546;21.630;2023-04-15T13:44:13;99521.41;;;13.90;46.65
77939;BME280;67136;47.546;21.630;2023-04-15T13:47:16;99509.56;;;13.86;45.89
77939;BME280;67136;47.546;21.630;2023-04-15T13:50:20;99527.59;;;14.13;46.26
77939;BME280;67136;47.546;21.630;2023-04-15T13:53:23;99521.84;;;14.10;45.72
77939;BME280;67136;47.546;21.630;2023-04-15T13:56:39;99511.78;;;14.37;43.64
77939;BME280;67136;47.546;21.630;2023-04-15T13:59:42;99522.88;;;14.01;43.27
77939;BME280;67136;47.546;21.630;2023-04-15T14:02:45;99522.69;;;14.26;42.53
77939;BME280;67136;47.546;21.630;2023-04-15T14:05:48;99543.22;;;14.31;42.72
77939;BME280;67136;47.546;21.630;2023-04-15T14:08:56;99545.97;;;14.37;43.36
77939;BME280;67136;47.546;21.630;2023-04-15T14:11:59;99531.84;;;14.46;44.18
77939;BME280;67136;47.546;21.630;2023-04-15T14:15:02;99536.16;;;15.09;43.76
77939;BME280;67136;47.546;21.630;2023-04-15T14:18:06;99545.25;;;15.74;44.31
77939;BME280;67136;47.546;21.630;2023-04-15T14:21:09;99539.34;;;16.24;43.40
77939;BME280;67136;47.546;21.630;2023-04-15T14:24:12;99537.81;;;16.29;43.41
77939;BME280;67136;47.546;21.630;2023-04-15T14:27:14;99544.59;;;17.11;42.18
77939;BME280;67136;47.546;21.630;2023-04-15T14:30:18;99533.19;;;17.10;41.86
77939;BME280;67136;47.546;21.630;2023-04-15T14:33:20;99531.91;;;18.12;39.97
77939;BME280;67136;47.546;21.630;2023-04-15T14:36:23;99534.09;;;18.64;38.69
77939;BME280;67136;47.546;21.630;2023-04-15T14:39:25;99542.16;;;19.43;38.22
77939;BME280;67136;47.546;21.630;2023-04-15T14:42:28;99536.94;;;17.79;42.07
77939;BME280;67136;47.546;21.630;2023-04-15T14:45:31;99547.25;;;16.96;44.19
77939;BME280;67136;47.546;21.630;2023-04-15T14:48:34;99547.72;;;16.12;45.94
77939;BME280;67136;47.546;21.630;2023-04-15T14:51:37;99547.06;;;15.73;47.02
77939;BME280;67136;47.546;21.630;2023-04-15T14:54:42;99551.50;;;15.28;49.29
77939;BME280;67136;47.546;21.630;2023-04-15T14:57:45;99557.50;;;15.14;49.78
77939;BME280;67136;47.546;21.630;2023-04-15T15:00:47;99564.00;;;15.26;50.09
77939;BME280;67136;47.546;21.630;2023-04-15T15:03:50;99564.78;;;16.54;47.64
77939;BME280;67136;47.546;21.630;2023-04-15T15:06:53;99574.37;;;17.40;46.20
77939;BME280;67136;47.546;21.630;2023-04-15T15:09:56;99573.06;;;16.65;49.35
77939;BME280;67136;47.546;21.630;2023-04-15T15:12:58;99565.72;;;16.09;50.82
77939;BME280;67136;47.546;21.630;2023-04-15T15:16:01;99569.00;;;16.26;50.30
77939;BME280;67136;47.546;21.630;2023-04-15T15:19:04;99557.63;;;16.25;50.81
77939;BME280;67136;47.546;21.630;2023-04-15T15:22:07;99572.84;;;15.86;51.72
77939;BME280;67136;47.546;21.630;2023-04-15T15:25:09;99569.75;;;15.29;53.25
77939;BME280;67136;47.546;21.630;2023-04-15T15:28:12;99569.66;;;14.84;54.46
77939;BME280;67136;47.546;21.630;2023-04-15T15:31:15;99570.97;;;14.88;53.71
77939;BME280;67136;47.546;21.630;2023-04-15T15:34:17;99569.91;;;14.66;54.12
77939;BME280;67136;47.546;21.630;2023-04-15T15:37:20;99575.97;;;14.67;53.56
77939;BME280;67136;47.546;21.630;2023-04-15T15:40:23;99573.19;;;14.60;53.96
77939;BME280;67136;47.546;21.630;2023-04-15T15:43:26;99575.72;;;14.92;52.50
77939;BME280;67136;47.546;21.630;2023-04-15T15:46:28;99581.22;;;15.14;51.66
77939;BME280;67136;47.546;21.630;2023-04-15T15:49:32;99581.75;;;15.01;51.72
77939;BME280;67136;47.546;21.630;2023-04-15T15:52:35;99581.28;;;14.98;51.63
77939;BME280;67136;47.546;21.630;2023-04-15T15:55:38;99578.00;;;14.95;52.09
77939;BME280;67136;47.546;21.630;2023-04-15T15:58:41;99577.50;;;14.92;52.04
77939;BME280;67136;47.546;21.630;2023-04-15T16:01:46;99577.75;;;14.74;52.73
77939;BME280;67136;47.546;21.630;2023-04-15T16:04:49;99573.84;;;14.62;52.95
77939;BME280;67136;47.546;21.630;2023-04-15T16:07:53;99577.19;;;14.56;53.42
77939;BME280;67136;47.546;21.630;2023-04-15T16:10:56;99583.13;;;14.42;54.23
77939;BME280;67136;47.546;21.630;2023-04-15T16:13:58;99582.81;;;14.05;55.08